Aviation Digital Data Service (ADDS)

Output produced by METARs form (2125 UTC 16 February 2019)
found at http://www.aviationweather.gov/metar/data/
 
METAR text: RORY 162100Z AUTO 36010KT 6000 -RA BKN023 OVC030 15/13 Q1020
Conditions at: RORY (YORON ISLAND , JP) observed 2100 UTC 16 February 2019
Temperature: 15.0°C (59°F)
Dewpoint: 13.0°C (55°F) [RH = 88%]
Pressure (altimeter): 30.12 inches Hg (1020.0 mb)
Winds: from the N (360 degrees) at 12 MPH (10 knots; 5.1 m/s)
Visibility: 4 miles ( 6 km)
Ceiling: 2300 feet AGL
Clouds: broken clouds at 2300 feet AGL
overcast cloud deck at 3000 feet AGL
Weather: -RA  (light rain)

METAR text: RORY 162000Z AUTO 01012KT 9999 FEW017 BKN021 BKN025 16/13 Q1019
Conditions at: RORY (YORON ISLAND , JP) observed 2000 UTC 16 February 2019
Temperature: 16.0°C (61°F)
Dewpoint: 13.0°C (55°F) [RH = 82%]
Pressure (altimeter): 30.09 inches Hg (1019.0 mb)
Winds: from the N (10 degrees) at 14 MPH (12 knots; 6.2 m/s)
Visibility: 6 or more miles (10+ km)
Ceiling: 2100 feet AGL
Clouds: few clouds at 1700 feet AGL
broken clouds at 2100 feet AGL
broken clouds at 2500 feet AGL
Weather: no significant weather observed at this time

METAR text: RORY 161900Z AUTO 02012KT 9999 FEW021 SCT023 BKN027 16/12 Q1019
Conditions at: RORY (YORON ISLAND , JP) observed 1900 UTC 16 February 2019
Temperature: 16.0°C (61°F)
Dewpoint: 12.0°C (54°F) [RH = 77%]
Pressure (altimeter): 30.09 inches Hg (1019.0 mb)
Winds: from the NNE (20 degrees) at 14 MPH (12 knots; 6.2 m/s)
Visibility: 6 or more miles (10+ km)
Ceiling: 2700 feet AGL
Clouds: few clouds at 2100 feet AGL
scattered clouds at 2300 feet AGL
broken clouds at 2700 feet AGL
Weather: no significant weather observed at this time

METAR text: RORY 161800Z AUTO 36013KT //// // SCT021 BKN025 BKN028 16/12 Q1019
Conditions at: RORY (YORON ISLAND , JP) observed 1800 UTC 16 February 2019
Temperature: 16.0°C (61°F)
Dewpoint: 12.0°C (54°F) [RH = 77%]
Pressure (altimeter): 30.09 inches Hg (1019.0 mb)
Winds: from the N (360 degrees) at 15 MPH (13 knots; 6.7 m/s)
Visibility: missing
Ceiling: 2500 feet AGL
Clouds: scattered clouds at 2100 feet AGL
broken clouds at 2500 feet AGL
broken clouds at 2800 feet AGL
Weather: no significant weather observed at this time

METAR text: RORY 161700Z AUTO 36012KT //// // BKN022 BKN025 OVC029 16/12 Q1019
Conditions at: RORY (YORON ISLAND , JP) observed 1700 UTC 16 February 2019
Temperature: 16.0°C (61°F)
Dewpoint: 12.0°C (54°F) [RH = 77%]
Pressure (altimeter): 30.09 inches Hg (1019.0 mb)
Winds: from the N (360 degrees) at 14 MPH (12 knots; 6.2 m/s)
Visibility: missing
Ceiling: 2200 feet AGL
Clouds: broken clouds at 2200 feet AGL
broken clouds at 2500 feet AGL
overcast cloud deck at 2900 feet AGL
Weather: no significant weather observed at this time

METAR text: RORY 161600Z AUTO 01013KT 9999 BKN018 BKN022 OVC031 16/13 Q1020
Conditions at: RORY (YORON ISLAND , JP) observed 1600 UTC 16 February 2019
Temperature: 16.0°C (61°F)
Dewpoint: 13.0°C (55°F) [RH = 82%]
Pressure (altimeter): 30.12 inches Hg (1020.0 mb)
Winds: from the N (10 degrees) at 15 MPH (13 knots; 6.7 m/s)
Visibility: 6 or more miles (10+ km)
Ceiling: 1800 feet AGL
Clouds: broken clouds at 1800 feet AGL
broken clouds at 2200 feet AGL
overcast cloud deck at 3100 feet AGL
Weather: no significant weather observed at this time

METAR text: RORY 161500Z AUTO 01013KT 9999 BKN023 BKN026 OVC028 16/12 Q1020
Conditions at: RORY (YORON ISLAND , JP) observed 1500 UTC 16 February 2019
Temperature: 16.0°C (61°F)
Dewpoint: 12.0°C (54°F) [RH = 77%]
Pressure (altimeter): 30.12 inches Hg (1020.0 mb)
Winds: from the N (10 degrees) at 15 MPH (13 knots; 6.7 m/s)
Visibility: 6 or more miles (10+ km)
Ceiling: 2300 feet AGL
Clouds: broken clouds at 2300 feet AGL
broken clouds at 2600 feet AGL
overcast cloud deck at 2800 feet AGL
Weather: no significant weather observed at this time

METAR text: RORY 161400Z AUTO 36016KT 9999 SCT016 OVC021 16/13 Q1020
Conditions at: RORY (YORON ISLAND , JP) observed 1400 UTC 16 February 2019
Temperature: 16.0°C (61°F)
Dewpoint: 13.0°C (55°F) [RH = 82%]
Pressure (altimeter): 30.12 inches Hg (1020.0 mb)
Winds: from the N (360 degrees) at 18 MPH (16 knots; 8.2 m/s)
Visibility: 6 or more miles (10+ km)
Ceiling: 2100 feet AGL
Clouds: scattered clouds at 1600 feet AGL
overcast cloud deck at 2100 feet AGL
Weather: no significant weather observed at this time

METAR text: RORY 161300Z AUTO 36014KT 9999 SCT019 OVC023 17/13 Q1020
Conditions at: RORY (YORON ISLAND , JP) observed 1300 UTC 16 February 2019
Temperature: 17.0°C (63°F)
Dewpoint: 13.0°C (55°F) [RH = 77%]
Pressure (altimeter): 30.12 inches Hg (1020.0 mb)
Winds: from the N (360 degrees) at 16 MPH (14 knots; 7.2 m/s)
Visibility: 6 or more miles (10+ km)
Ceiling: 2300 feet AGL
Clouds: scattered clouds at 1900 feet AGL
overcast cloud deck at 2300 feet AGL
Weather: no significant weather observed at this time

METAR text: RORY 161200Z AUTO 36014KT 9999 SCT018 SCT020 BKN022 17/14 Q1020
Conditions at: RORY (YORON ISLAND , JP) observed 1200 UTC 16 February 2019
Temperature: 17.0°C (63°F)
Dewpoint: 14.0°C (57°F) [RH = 82%]
Pressure (altimeter): 30.12 inches Hg (1020.0 mb)
Winds: from the N (360 degrees) at 16 MPH (14 knots; 7.2 m/s)
Visibility: 6 or more miles (10+ km)
Ceiling: 2200 feet AGL
Clouds: scattered clouds at 1800 feet AGL
scattered clouds at 2000 feet AGL
broken clouds at 2200 feet AGL
Weather: no significant weather observed at this time

METAR text: RORY 161100Z AUTO 36015KT 9999 FEW009 SCT010 BKN020 16/14 Q1019
Conditions at: RORY (YORON ISLAND , JP) observed 1100 UTC 16 February 2019
Temperature: 16.0°C (61°F)
Dewpoint: 14.0°C (57°F) [RH = 88%]
Pressure (altimeter): 30.09 inches Hg (1019.0 mb)
Winds: from the N (360 degrees) at 17 MPH (15 knots; 7.7 m/s)
Visibility: 6 or more miles (10+ km)
Ceiling: 2000 feet AGL
Clouds: few clouds at 900 feet AGL
scattered clouds at 1000 feet AGL
broken clouds at 2000 feet AGL
Weather: no significant weather observed at this time

METAR text: RORY 161000Z AUTO 36014KT 6000 -RA BKN013 OVC018 17/15 Q1019
Conditions at: RORY (YORON ISLAND , JP) observed 1000 UTC 16 February 2019
Temperature: 17.0°C (63°F)
Dewpoint: 15.0°C (59°F) [RH = 88%]
Pressure (altimeter): 30.09 inches Hg (1019.0 mb)
Winds: from the N (360 degrees) at 16 MPH (14 knots; 7.2 m/s)
Visibility: 4 miles ( 6 km)
Ceiling: 1300 feet AGL
Clouds: broken clouds at 1300 feet AGL
overcast cloud deck at 1800 feet AGL
Weather: -RA  (light rain)

METAR text: RORY 160900Z AUTO 35014KT 9999 OVC020 18/14 Q1018
Conditions at: RORY (YORON ISLAND , JP) observed 0900 UTC 16 February 2019
Temperature: 18.0°C (64°F)
Dewpoint: 14.0°C (57°F) [RH = 77%]
Pressure (altimeter): 30.06 inches Hg (1018.0 mb)
Winds: from the N (350 degrees) at 16 MPH (14 knots; 7.2 m/s)
Visibility: 6 or more miles (10+ km)
Ceiling: 2000 feet AGL
Clouds: overcast cloud deck at 2000 feet AGL
Weather: no significant weather observed at this time

METAR text: RORY 160800Z AUTO 36013KT 9999 OVC019 18/14 Q1018
Conditions at: RORY (YORON ISLAND , JP) observed 0800 UTC 16 February 2019
Temperature: 18.0°C (64°F)
Dewpoint: 14.0°C (57°F) [RH = 77%]
Pressure (altimeter): 30.06 inches Hg (1018.0 mb)
Winds: from the N (360 degrees) at 15 MPH (13 knots; 6.7 m/s)
Visibility: 6 or more miles (10+ km)
Ceiling: 1900 feet AGL
Clouds: overcast cloud deck at 1900 feet AGL
Weather: no significant weather observed at this time

METAR text: RORY 160700Z AUTO 36014KT 9999 FEW015 SCT019 OVC022 18/14 Q1017
Conditions at: RORY (YORON ISLAND , JP) observed 0700 UTC 16 February 2019
Temperature: 18.0°C (64°F)
Dewpoint: 14.0°C (57°F) [RH = 77%]
Pressure (altimeter): 30.03 inches Hg (1017.0 mb)
Winds: from the N (360 degrees) at 16 MPH (14 knots; 7.2 m/s)
Visibility: 6 or more miles (10+ km)
Ceiling: 2200 feet AGL
Clouds: few clouds at 1500 feet AGL
scattered clouds at 1900 feet AGL
overcast cloud deck at 2200 feet AGL
Weather: no significant weather observed at this time

METAR text: RORY 160600Z AUTO 35014KT 9999 SCT017 OVC022 19/15 Q1018
Conditions at: RORY (YORON ISLAND , JP) observed 0600 UTC 16 February 2019
Temperature: 19.0°C (66°F)
Dewpoint: 15.0°C (59°F) [RH = 78%]
Pressure (altimeter): 30.06 inches Hg (1018.0 mb)
Winds: from the N (350 degrees) at 16 MPH (14 knots; 7.2 m/s)
Visibility: 6 or more miles (10+ km)
Ceiling: 2200 feet AGL
Clouds: scattered clouds at 1700 feet AGL
overcast cloud deck at 2200 feet AGL
Weather: no significant weather observed at this time

METAR text: RORY 160500Z AUTO 35013KT 9999 FEW017 SCT020 BKN022 19/15 Q1018
Conditions at: RORY (YORON ISLAND , JP) observed 0500 UTC 16 February 2019
Temperature: 19.0°C (66°F)
Dewpoint: 15.0°C (59°F) [RH = 78%]
Pressure (altimeter): 30.06 inches Hg (1018.0 mb)
Winds: from the N (350 degrees) at 15 MPH (13 knots; 6.7 m/s)
Visibility: 6 or more miles (10+ km)
Ceiling: 2200 feet AGL
Clouds: few clouds at 1700 feet AGL
scattered clouds at 2000 feet AGL
broken clouds at 2200 feet AGL
Weather: no significant weather observed at this time

METAR text: RORY 160400Z AUTO 01013KT 9999 SCT010 SCT014 BKN015 19/16 Q1018
Conditions at: RORY (YORON ISLAND , JP) observed 0400 UTC 16 February 2019
Temperature: 19.0°C (66°F)
Dewpoint: 16.0°C (61°F) [RH = 83%]
Pressure (altimeter): 30.06 inches Hg (1018.0 mb)
Winds: from the N (10 degrees) at 15 MPH (13 knots; 6.7 m/s)
Visibility: 6 or more miles (10+ km)
Ceiling: 1500 feet AGL
Clouds: scattered clouds at 1000 feet AGL
scattered clouds at 1400 feet AGL
broken clouds at 1500 feet AGL
Weather: no significant weather observed at this time

METAR text: RORY 160300Z AUTO 36014KT 9999 FEW014 SCT046 BKN050 20/16 Q1019
Conditions at: RORY (YORON ISLAND , JP) observed 0300 UTC 16 February 2019
Temperature: 20.0°C (68°F)
Dewpoint: 16.0°C (61°F) [RH = 78%]
Pressure (altimeter): 30.09 inches Hg (1019.0 mb)
Winds: from the N (360 degrees) at 16 MPH (14 knots; 7.2 m/s)
Visibility: 6 or more miles (10+ km)
Ceiling: 5000 feet AGL
Clouds: few clouds at 1400 feet AGL
scattered clouds at 4600 feet AGL
broken clouds at 5000 feet AGL
Weather: no significant weather observed at this time

METAR text: RORY 160200Z AUTO 36012KT 9999 SCT016 SCT023 BKN050 21/17 Q1020
Conditions at: RORY (YORON ISLAND , JP) observed 0200 UTC 16 February 2019
Temperature: 21.0°C (70°F)
Dewpoint: 17.0°C (63°F) [RH = 78%]
Pressure (altimeter): 30.12 inches Hg (1020.0 mb)
Winds: from the N (360 degrees) at 14 MPH (12 knots; 6.2 m/s)
Visibility: 6 or more miles (10+ km)
Ceiling: 5000 feet AGL
Clouds: scattered clouds at 1600 feet AGL
scattered clouds at 2300 feet AGL
broken clouds at 5000 feet AGL
Weather: no significant weather observed at this time

METAR text: RORY 160100Z AUTO 35011KT 9999 FEW044 BKN050 OVC060 21/17 Q1020
Conditions at: RORY (YORON ISLAND , JP) observed 0100 UTC 16 February 2019
Temperature: 21.0°C (70°F)
Dewpoint: 17.0°C (63°F) [RH = 78%]
Pressure (altimeter): 30.12 inches Hg (1020.0 mb)
Winds: from the N (350 degrees) at 13 MPH (11 knots; 5.7 m/s)
Visibility: 6 or more miles (10+ km)
Ceiling: 5000 feet AGL
Clouds: few clouds at 4400 feet AGL
broken clouds at 5000 feet AGL
overcast cloud deck at 6000 feet AGL
Weather: no significant weather observed at this time

METAR text: RORY 160000Z AUTO 35014KT 9999 FEW017 21/18 Q1020
Conditions at: RORY (YORON ISLAND , JP) observed 0000 UTC 16 February 2019
Temperature: 21.0°C (70°F)
Dewpoint: 18.0°C (64°F) [RH = 83%]
Pressure (altimeter): 30.12 inches Hg (1020.0 mb)
Winds: from the N (350 degrees) at 16 MPH (14 knots; 7.2 m/s)
Visibility: 6 or more miles (10+ km)
Ceiling: at least 12,000 feet AGL
Clouds: few clouds at 1700 feet AGL
Weather: no significant weather observed at this time

METAR text: RORY 152300Z AUTO 34014KT 9999 FEW017 SCT021 BKN032 20/17 Q1019
Conditions at: RORY (YORON ISLAND , JP) observed 2300 UTC 15 February 2019
Temperature: 20.0°C (68°F)
Dewpoint: 17.0°C (63°F) [RH = 83%]
Pressure (altimeter): 30.09 inches Hg (1019.0 mb)
Winds: from the NNW (340 degrees) at 16 MPH (14 knots; 7.2 m/s)
Visibility: 6 or more miles (10+ km)
Ceiling: 3200 feet AGL
Clouds: few clouds at 1700 feet AGL
scattered clouds at 2100 feet AGL
broken clouds at 3200 feet AGL
Weather: no significant weather observed at this time

METAR text: RORY 152200Z AUTO 35010KT 9999 FEW015 SCT033 BKN100 20/18 Q1018
Conditions at: RORY (YORON ISLAND , JP) observed 2200 UTC 15 February 2019
Temperature: 20.0°C (68°F)
Dewpoint: 18.0°C (64°F) [RH = 88%]
Pressure (altimeter): 30.06 inches Hg (1018.0 mb)
Winds: from the N (350 degrees) at 12 MPH (10 knots; 5.1 m/s)
Visibility: 6 or more miles (10+ km)
Ceiling: 10000 feet AGL
Clouds: few clouds at 1500 feet AGL
scattered clouds at 3300 feet AGL
broken clouds at 10000 feet AGL
Weather: no significant weather observed at this time

METAR text: RORY 152100Z AUTO 31012KT 9999 SCT020 SCT025 OVC060 21/17 Q1018
Conditions at: RORY (YORON ISLAND , JP) observed 2100 UTC 15 February 2019
Temperature: 21.0°C (70°F)
Dewpoint: 17.0°C (63°F) [RH = 78%]
Pressure (altimeter): 30.06 inches Hg (1018.0 mb)
Winds: from the NW (310 degrees) at 14 MPH (12 knots; 6.2 m/s)
Visibility: 6 or more miles (10+ km)
Ceiling: 6000 feet AGL
Clouds: scattered clouds at 2000 feet AGL
scattered clouds at 2500 feet AGL
overcast cloud deck at 6000 feet AGL
Weather: no significant weather observed at this time

METAR text: RORY 152000Z AUTO 31013KT 9999 SCT021 21/17 Q1018
Conditions at: RORY (YORON ISLAND , JP) observed 2000 UTC 15 February 2019
Temperature: 21.0°C (70°F)
Dewpoint: 17.0°C (63°F) [RH = 78%]
Pressure (altimeter): 30.06 inches Hg (1018.0 mb)
Winds: from the NW (310 degrees) at 15 MPH (13 knots; 6.7 m/s)
Visibility: 6 or more miles (10+ km)
Ceiling: at least 12,000 feet AGL
Clouds: scattered clouds at 2100 feet AGL
Weather: no significant weather observed at this time

METAR text: RORY 151900Z AUTO 31015KT 9999 FEW022 BKN090 BKN120 21/18 Q1017
Conditions at: RORY (YORON ISLAND , JP) observed 1900 UTC 15 February 2019
Temperature: 21.0°C (70°F)
Dewpoint: 18.0°C (64°F) [RH = 83%]
Pressure (altimeter): 30.03 inches Hg (1017.0 mb)
Winds: from the NW (310 degrees) at 17 MPH (15 knots; 7.7 m/s)
Visibility: 6 or more miles (10+ km)
Ceiling: 9000 feet AGL
Clouds: few clouds at 2200 feet AGL
broken clouds at 9000 feet AGL
broken clouds at 12000 feet AGL
Weather: no significant weather observed at this time

METAR text: RORY 151800Z AUTO 32015KT 9999 FEW015 SCT036 BKN120 21/18 Q1017
Conditions at: RORY (YORON ISLAND , JP) observed 1800 UTC 15 February 2019
Temperature: 21.0°C (70°F)
Dewpoint: 18.0°C (64°F) [RH = 83%]
Pressure (altimeter): 30.03 inches Hg (1017.0 mb)
Winds: from the NW (320 degrees) at 17 MPH (15 knots; 7.7 m/s)
Visibility: 6 or more miles (10+ km)
Ceiling: 12000 feet AGL
Clouds: few clouds at 1500 feet AGL
scattered clouds at 3600 feet AGL
broken clouds at 12000 feet AGL
Weather: no significant weather observed at this time

METAR text: RORY 151700Z AUTO 32015KT //// // FEW016 21/19 Q1018
Conditions at: RORY (YORON ISLAND , JP) observed 1700 UTC 15 February 2019
Temperature: 21.0°C (70°F)
Dewpoint: 19.0°C (66°F) [RH = 88%]
Pressure (altimeter): 30.06 inches Hg (1018.0 mb)
Winds: from the NW (320 degrees) at 17 MPH (15 knots; 7.7 m/s)
Visibility: missing
Ceiling: at least 12,000 feet AGL
Clouds: few clouds at 1600 feet AGL
Weather: no significant weather observed at this time

METAR text: RORY 151600Z AUTO 28013KT //// // FEW005 SCT012 BKN015 //////TCU 21/20 Q1018
Conditions at: RORY (YORON ISLAND , JP) observed 1600 UTC 15 February 2019
Temperature: 21.0°C (70°F)
Dewpoint: 20.0°C (68°F) [RH = 94%]
Pressure (altimeter): 30.06 inches Hg (1018.0 mb)
Winds: from the W (280 degrees) at 15 MPH (13 knots; 6.7 m/s)
Visibility: missing
Ceiling: 1500 feet AGL
Clouds: few clouds at 500 feet AGL
scattered clouds at 1200 feet AGL
broken clouds at 1500 feet AGL
Weather: no significant weather observed at this time

METAR text: RORY 151500Z AUTO 26015KT //// // FEW011 SCT021 BKN048 22/20 Q1017
Conditions at: RORY (YORON ISLAND , JP) observed 1500 UTC 15 February 2019
Temperature: 22.0°C (72°F)
Dewpoint: 20.0°C (68°F) [RH = 88%]
Pressure (altimeter): 30.03 inches Hg (1017.0 mb)
Winds: from the W (260 degrees) at 17 MPH (15 knots; 7.7 m/s)
Visibility: missing
Ceiling: 4800 feet AGL
Clouds: few clouds at 1100 feet AGL
scattered clouds at 2100 feet AGL
broken clouds at 4800 feet AGL
Weather: no significant weather observed at this time

METAR text: RORY 151400Z AUTO 28014KT //// // FEW009 BKN012 BKN013 //////TCU 22/20 Q1017
Conditions at: RORY (YORON ISLAND , JP) observed 1400 UTC 15 February 2019
Temperature: 22.0°C (72°F)
Dewpoint: 20.0°C (68°F) [RH = 88%]
Pressure (altimeter): 30.03 inches Hg (1017.0 mb)
Winds: from the W (280 degrees) at 16 MPH (14 knots; 7.2 m/s)
Visibility: missing
Ceiling: 1200 feet AGL
Clouds: few clouds at 900 feet AGL
broken clouds at 1200 feet AGL
broken clouds at 1300 feet AGL
Weather: no significant weather observed at this time

METAR text: RORY 151300Z AUTO 22013G23KT 180V250 //// // FEW005 SCT023 BKN032 //////TCU 20/20 Q1017
Conditions at: RORY (YORON ISLAND , JP) observed 1300 UTC 15 February 2019
Temperature: 20.0°C (68°F)
Dewpoint: 20.0°C (68°F) [RH = 100%]
Pressure (altimeter): 30.03 inches Hg (1017.0 mb)
Winds: from the SW (220 degrees) at 15 MPH (13 knots; 6.7 m/s)
gusting to 26 MPH (23 knots; 11.8 m/s)
Visibility: missing
Ceiling: 3200 feet AGL
Clouds: few clouds at 500 feet AGL
scattered clouds at 2300 feet AGL
broken clouds at 3200 feet AGL
Weather: no significant weather observed at this time

METAR text: RORY 151200Z AUTO 21012KT //// // SCT021 SCT050 BKN070 //////TCU 23/20 Q1017
Conditions at: RORY (YORON ISLAND , JP) observed 1200 UTC 15 February 2019
Temperature: 23.0°C (73°F)
Dewpoint: 20.0°C (68°F) [RH = 83%]
Pressure (altimeter): 30.03 inches Hg (1017.0 mb)
Winds: from the SSW (210 degrees) at 14 MPH (12 knots; 6.2 m/s)
Visibility: missing
Ceiling: 7000 feet AGL
Clouds: scattered clouds at 2100 feet AGL
scattered clouds at 5000 feet AGL
broken clouds at 7000 feet AGL
Weather: no significant weather observed at this time

METAR text: RORY 151100Z AUTO 20012KT //// // NSC 22/20 Q1017
Conditions at: RORY (YORON ISLAND , JP) observed 1100 UTC 15 February 2019
Temperature: 22.0°C (72°F)
Dewpoint: 20.0°C (68°F) [RH = 88%]
Pressure (altimeter): 30.03 inches Hg (1017.0 mb)
Winds: from the SSW (200 degrees) at 14 MPH (12 knots; 6.2 m/s)
Visibility: missing
Ceiling: at least 12,000 feet AGL
Clouds: sky clear below 12,000 feet AGL
Weather: no significant weather observed at this time

METAR text: RORY 151000Z AUTO 19015KT 9999 FEW008 OVC090 22/21 Q1016
Conditions at: RORY (YORON ISLAND , JP) observed 1000 UTC 15 February 2019
Temperature: 22.0°C (72°F)
Dewpoint: 21.0°C (70°F) [RH = 94%]
Pressure (altimeter): 30.00 inches Hg (1016.0 mb)
Winds: from the S (190 degrees) at 17 MPH (15 knots; 7.7 m/s)
Visibility: 6 or more miles (10+ km)
Ceiling: 9000 feet AGL
Clouds: few clouds at 800 feet AGL
overcast cloud deck at 9000 feet AGL
Weather: no significant weather observed at this time

METAR text: RORY 150938Z AUTO 19015KT 9999 SCT009 BKN010 22/21 Q1016 RMK A3003
Conditions at: RORY (YORON ISLAND , JP) observed 0938 UTC 15 February 2019
Temperature: 22.0°C (72°F)
Dewpoint: 21.0°C (70°F) [RH = 94%]
Pressure (altimeter): 30.00 inches Hg (1016.0 mb)
Winds: from the S (190 degrees) at 17 MPH (15 knots; 7.7 m/s)
Visibility: 6 or more miles (10+ km)
Ceiling: 1000 feet AGL
Clouds: scattered clouds at 900 feet AGL
broken clouds at 1000 feet AGL
Weather: no significant weather observed at this time